North Providence, Rhode Island
Current Conditions -  °F | °C
As of 10:55 PM on Thursday 18 Dec 2014 (Local Time) from KSFZ Reporting Station
Overcast Overcast  
Wind Chill: -1°   Ceiling: 2500
Heat Index:   Visibility: 10mi
Dew Point: -6°   Wind: 7mph
Humidity: 56%   Direction: 280°W
Pressure: 29.86"   Gusts: NA
Location:  41.86°N, 71.48°W
Report Text: KSFZ 190355Z 28006KT 10SM OVC025 02/M06 A2986 RMK AO1
Loading
Personal Weather Stations






























Interactive Weather Map New forecast layout! Learn more

10-Day Weather Forecast

Advertisements
Track Severe Weather on mobile